sensor_id;sensor_type;location;lat;lon;timestamp;temperature;humidity
81630;DHT22;71039;49.500;10.418;2023-11-19T00:01:07;9.20;68.30
81630;DHT22;71039;49.500;10.418;2023-11-19T00:03:33;9.20;68.30
81630;DHT22;71039;49.500;10.418;2023-11-19T00:05:59;9.20;68.40
81630;DHT22;71039;49.500;10.418;2023-11-19T00:08:24;9.20;68.40
81630;DHT22;71039;49.500;10.418;2023-11-19T00:10:50;9.20;68.40
81630;DHT22;71039;49.500;10.418;2023-11-19T00:13:16;9.20;68.50
81630;DHT22;71039;49.500;10.418;2023-11-19T00:15:41;9.20;68.50
81630;DHT22;71039;49.500;10.418;2023-11-19T00:18:07;9.20;68.60
81630;DHT22;71039;49.500;10.418;2023-11-19T00:20:32;9.20;68.60
81630;DHT22;71039;49.500;10.418;2023-11-19T00:22:58;9.20;68.60
81630;DHT22;71039;49.500;10.418;2023-11-19T00:25:23;9.20;68.60
81630;DHT22;71039;49.500;10.418;2023-11-19T00:27:50;9.30;68.70
81630;DHT22;71039;49.500;10.418;2023-11-19T00:30:15;9.30;68.60
81630;DHT22;71039;49.500;10.418;2023-11-19T00:32:41;9.30;68.70
81630;DHT22;71039;49.500;10.418;2023-11-19T00:35:07;9.30;68.70
81630;DHT22;71039;49.500;10.418;2023-11-19T00:37:33;9.40;68.60
81630;DHT22;71039;49.500;10.418;2023-11-19T00:39:59;9.40;68.60
81630;DHT22;71039;49.500;10.418;2023-11-19T00:42:25;9.40;68.60
81630;DHT22;71039;49.500;10.418;2023-11-19T00:44:51;9.40;68.70
81630;DHT22;71039;49.500;10.418;2023-11-19T00:47:17;9.40;68.70
81630;DHT22;71039;49.500;10.418;2023-11-19T00:49:42;9.40;68.70
81630;DHT22;71039;49.500;10.418;2023-11-19T00:52:08;9.40;68.70
81630;DHT22;71039;49.500;10.418;2023-11-19T00:54:34;9.40;68.70
81630;DHT22;71039;49.500;10.418;2023-11-19T00:56:59;9.40;68.70
81630;DHT22;71039;49.500;10.418;2023-11-19T00:59:25;9.40;68.80
81630;DHT22;71039;49.500;10.418;2023-11-19T01:01:50;9.40;68.80
81630;DHT22;71039;49.500;10.418;2023-11-19T01:04:16;9.40;68.80
81630;DHT22;71039;49.500;10.418;2023-11-19T01:06:42;9.40;68.90
81630;DHT22;71039;49.500;10.418;2023-11-19T01:09:08;9.40;68.90
81630;DHT22;71039;49.500;10.418;2023-11-19T01:11:34;9.40;68.90
81630;DHT22;71039;49.500;10.418;2023-11-19T01:14:00;9.50;68.90
81630;DHT22;71039;49.500;10.418;2023-11-19T01:16:26;9.50;68.80
81630;DHT22;71039;49.500;10.418;2023-11-19T01:18:52;9.50;68.90
81630;DHT22;71039;49.500;10.418;2023-11-19T01:21:18;9.50;68.90
81630;DHT22;71039;49.500;10.418;2023-11-19T01:23:43;9.50;68.90
81630;DHT22;71039;49.500;10.418;2023-11-19T01:26:10;9.50;68.90
81630;DHT22;71039;49.500;10.418;2023-11-19T01:28:36;9.50;68.90
81630;DHT22;71039;49.500;10.418;2023-11-19T01:31:02;9.60;68.80
81630;DHT22;71039;49.500;10.418;2023-11-19T01:33:27;9.60;68.90
81630;DHT22;71039;49.500;10.418;2023-11-19T01:35:53;9.50;68.90
81630;DHT22;71039;49.500;10.418;2023-11-19T01:38:18;9.60;68.90
81630;DHT22;71039;49.500;10.418;2023-11-19T01:40:44;9.60;69.00
81630;DHT22;71039;49.500;10.418;2023-11-19T01:43:09;9.60;69.00
81630;DHT22;71039;49.500;10.418;2023-11-19T01:45:36;9.60;69.10
81630;DHT22;71039;49.500;10.418;2023-11-19T01:48:02;9.60;69.00
81630;DHT22;71039;49.500;10.418;2023-11-19T01:50:28;9.60;69.00
81630;DHT22;71039;49.500;10.418;2023-11-19T01:52:54;9.60;69.10
81630;DHT22;71039;49.500;10.418;2023-11-19T01:55:21;9.60;69.10
81630;DHT22;71039;49.500;10.418;2023-11-19T01:57:48;9.60;69.20
81630;DHT22;71039;49.500;10.418;2023-11-19T02:00:15;9.70;69.20
81630;DHT22;71039;49.500;10.418;2023-11-19T02:02:42;9.70;69.30
81630;DHT22;71039;49.500;10.418;2023-11-19T02:05:09;9.70;69.70
81630;DHT22;71039;49.500;10.418;2023-11-19T02:07:34;9.70;69.30
81630;DHT22;71039;49.500;10.418;2023-11-19T02:10:00;9.70;69.30
81630;DHT22;71039;49.500;10.418;2023-11-19T02:12:26;9.70;69.40
81630;DHT22;71039;49.500;10.418;2023-11-19T02:14:51;9.80;69.40
81630;DHT22;71039;49.500;10.418;2023-11-19T02:17:29;9.80;69.50
81630;DHT22;71039;49.500;10.418;2023-11-19T02:19:55;9.80;69.50
81630;DHT22;71039;49.500;10.418;2023-11-19T02:22:21;9.80;69.50
81630;DHT22;71039;49.500;10.418;2023-11-19T02:24:49;9.80;69.50
81630;DHT22;71039;49.500;10.418;2023-11-19T02:27:37;9.90;69.50
81630;DHT22;71039;49.500;10.418;2023-11-19T02:30:03;10.00;69.50
81630;DHT22;71039;49.500;10.418;2023-11-19T02:32:28;10.00;69.50
81630;DHT22;71039;49.500;10.418;2023-11-19T02:34:54;10.00;69.50
81630;DHT22;71039;49.500;10.418;2023-11-19T02:37:19;10.00;69.50
81630;DHT22;71039;49.500;10.418;2023-11-19T02:39:45;10.00;69.40
81630;DHT22;71039;49.500;10.418;2023-11-19T02:42:10;10.00;69.40
81630;DHT22;71039;49.500;10.418;2023-11-19T02:44:36;10.00;69.50
81630;DHT22;71039;49.500;10.418;2023-11-19T02:47:02;10.00;69.50
81630;DHT22;71039;49.500;10.418;2023-11-19T02:49:27;10.00;69.50
81630;DHT22;71039;49.500;10.418;2023-11-19T02:51:53;10.10;69.50
81630;DHT22;71039;49.500;10.418;2023-11-19T02:54:18;10.10;69.60
81630;DHT22;71039;49.500;10.418;2023-11-19T02:56:44;10.10;69.60
81630;DHT22;71039;49.500;10.418;2023-11-19T02:59:09;10.10;69.60
81630;DHT22;71039;49.500;10.418;2023-11-19T03:01:35;10.10;69.60
81630;DHT22;71039;49.500;10.418;2023-11-19T03:04:00;10.10;69.60
81630;DHT22;71039;49.500;10.418;2023-11-19T03:06:26;10.10;69.60
81630;DHT22;71039;49.500;10.418;2023-11-19T03:08:52;10.10;69.60
81630;DHT22;71039;49.500;10.418;2023-11-19T03:11:18;10.20;69.60
81630;DHT22;71039;49.500;10.418;2023-11-19T03:13:43;10.20;69.70
81630;DHT22;71039;49.500;10.418;2023-11-19T03:16:09;10.20;69.70
81630;DHT22;71039;49.500;10.418;2023-11-19T03:18:34;10.20;69.70
81630;DHT22;71039;49.500;10.418;2023-11-19T03:21:00;10.20;69.70
81630;DHT22;71039;49.500;10.418;2023-11-19T03:23:25;10.30;69.70
81630;DHT22;71039;49.500;10.418;2023-11-19T03:25:51;10.30;69.70
81630;DHT22;71039;49.500;10.418;2023-11-19T03:28:16;10.30;69.70
81630;DHT22;71039;49.500;10.418;2023-11-19T03:30:42;10.30;69.80
81630;DHT22;71039;49.500;10.418;2023-11-19T03:33:07;10.30;69.80
81630;DHT22;71039;49.500;10.418;2023-11-19T03:35:33;10.30;69.90
81630;DHT22;71039;49.500;10.418;2023-11-19T03:37:59;10.30;69.90
81630;DHT22;71039;49.500;10.418;2023-11-19T03:40:24;10.30;70.00
81630;DHT22;71039;49.500;10.418;2023-11-19T03:42:50;10.40;70.10
81630;DHT22;71039;49.500;10.418;2023-11-19T03:45:16;10.40;70.10
81630;DHT22;71039;49.500;10.418;2023-11-19T03:47:42;10.40;70.20
81630;DHT22;71039;49.500;10.418;2023-11-19T03:50:08;10.40;70.30
81630;DHT22;71039;49.500;10.418;2023-11-19T03:52:33;10.50;70.30
81630;DHT22;71039;49.500;10.418;2023-11-19T03:54:59;10.50;70.40
81630;DHT22;71039;49.500;10.418;2023-11-19T03:57:25;10.50;70.40
81630;DHT22;71039;49.500;10.418;2023-11-19T03:59:50;10.50;70.40
81630;DHT22;71039;49.500;10.418;2023-11-19T04:02:16;10.50;70.50
81630;DHT22;71039;49.500;10.418;2023-11-19T04:04:42;10.60;70.50
81630;DHT22;71039;49.500;10.418;2023-11-19T04:07:08;10.60;70.50
81630;DHT22;71039;49.500;10.418;2023-11-19T04:09:33;10.60;70.70
81630;DHT22;71039;49.500;10.418;2023-11-19T04:12:00;10.70;70.70
81630;DHT22;71039;49.500;10.418;2023-11-19T04:14:26;10.70;70.70
81630;DHT22;71039;49.500;10.418;2023-11-19T04:16:51;10.70;70.70
81630;DHT22;71039;49.500;10.418;2023-11-19T04:19:18;10.80;70.70
81630;DHT22;71039;49.500;10.418;2023-11-19T04:21:43;10.80;70.80
81630;DHT22;71039;49.500;10.418;2023-11-19T04:24:10;10.80;70.80
81630;DHT22;71039;49.500;10.418;2023-11-19T04:26:35;10.90;70.80
81630;DHT22;71039;49.500;10.418;2023-11-19T04:29:01;10.90;70.70
81630;DHT22;71039;49.500;10.418;2023-11-19T04:31:30;10.90;70.90
81630;DHT22;71039;49.500;10.418;2023-11-19T04:33:55;11.00;70.90
81630;DHT22;71039;49.500;10.418;2023-11-19T04:36:21;11.00;71.00
81630;DHT22;71039;49.500;10.418;2023-11-19T04:38:46;11.00;71.00
81630;DHT22;71039;49.500;10.418;2023-11-19T04:41:12;11.10;71.00
81630;DHT22;71039;49.500;10.418;2023-11-19T04:43:37;11.10;71.10
81630;DHT22;71039;49.500;10.418;2023-11-19T04:46:04;11.10;71.20
81630;DHT22;71039;49.500;10.418;2023-11-19T04:48:29;11.20;71.20
81630;DHT22;71039;49.500;10.418;2023-11-19T04:50:55;11.20;71.20
81630;DHT22;71039;49.500;10.418;2023-11-19T04:53:20;11.30;71.20
81630;DHT22;71039;49.500;10.418;2023-11-19T04:55:46;11.30;71.10
81630;DHT22;71039;49.500;10.418;2023-11-19T04:58:11;11.30;71.10
81630;DHT22;71039;49.500;10.418;2023-11-19T05:00:37;11.40;71.10
81630;DHT22;71039;49.500;10.418;2023-11-19T05:03:02;11.40;71.10
81630;DHT22;71039;49.500;10.418;2023-11-19T05:05:28;11.40;71.20
81630;DHT22;71039;49.500;10.418;2023-11-19T05:07:53;11.50;71.20
81630;DHT22;71039;49.500;10.418;2023-11-19T05:10:19;11.50;71.30
81630;DHT22;71039;49.500;10.418;2023-11-19T05:12:44;11.50;71.20
81630;DHT22;71039;49.500;10.418;2023-11-19T05:15:10;11.50;71.20
81630;DHT22;71039;49.500;10.418;2023-11-19T05:17:36;11.60;71.20
81630;DHT22;71039;49.500;10.418;2023-11-19T05:20:01;11.70;71.20
81630;DHT22;71039;49.500;10.418;2023-11-19T05:22:27;11.70;71.30
81630;DHT22;71039;49.500;10.418;2023-11-19T05:24:52;11.70;71.20
81630;DHT22;71039;49.500;10.418;2023-11-19T05:27:18;11.70;71.20
81630;DHT22;71039;49.500;10.418;2023-11-19T05:29:43;11.70;71.40
81630;DHT22;71039;49.500;10.418;2023-11-19T05:32:09;11.80;71.30
81630;DHT22;71039;49.500;10.418;2023-11-19T05:34:34;11.90;71.30
81630;DHT22;71039;49.500;10.418;2023-11-19T05:37:00;11.90;71.30
81630;DHT22;71039;49.500;10.418;2023-11-19T05:39:26;11.90;71.30
81630;DHT22;71039;49.500;10.418;2023-11-19T05:41:51;11.90;71.30
81630;DHT22;71039;49.500;10.418;2023-11-19T05:44:17;11.90;71.30
81630;DHT22;71039;49.500;10.418;2023-11-19T05:46:42;11.90;71.20
81630;DHT22;71039;49.500;10.418;2023-11-19T05:49:11;11.90;71.20
81630;DHT22;71039;49.500;10.418;2023-11-19T05:51:40;12.00;71.20
81630;DHT22;71039;49.500;10.418;2023-11-19T05:54:10;12.00;71.10
81630;DHT22;71039;49.500;10.418;2023-11-19T05:56:36;12.00;71.20
81630;DHT22;71039;49.500;10.418;2023-11-19T05:59:01;12.00;71.00
81630;DHT22;71039;49.500;10.418;2023-11-19T06:01:27;12.10;71.10
81630;DHT22;71039;49.500;10.418;2023-11-19T06:03:52;12.10;71.10
81630;DHT22;71039;49.500;10.418;2023-11-19T06:06:18;12.10;71.20
81630;DHT22;71039;49.500;10.418;2023-11-19T06:08:44;12.10;71.20
81630;DHT22;71039;49.500;10.418;2023-11-19T06:11:10;12.10;71.20
81630;DHT22;71039;49.500;10.418;2023-11-19T06:13:36;12.10;71.20
81630;DHT22;71039;49.500;10.418;2023-11-19T06:16:01;12.20;71.30
81630;DHT22;71039;49.500;10.418;2023-11-19T06:18:27;12.20;71.30
81630;DHT22;71039;49.500;10.418;2023-11-19T06:20:52;12.20;71.40
81630;DHT22;71039;49.500;10.418;2023-11-19T06:23:18;12.20;71.30
81630;DHT22;71039;49.500;10.418;2023-11-19T06:25:43;12.20;71.30
81630;DHT22;71039;49.500;10.418;2023-11-19T06:28:09;12.20;71.40
81630;DHT22;71039;49.500;10.418;2023-11-19T06:30:34;12.30;71.40
81630;DHT22;71039;49.500;10.418;2023-11-19T06:33:00;12.30;71.30
81630;DHT22;71039;49.500;10.418;2023-11-19T06:35:25;12.30;71.30
81630;DHT22;71039;49.500;10.418;2023-11-19T06:37:51;12.30;71.30
81630;DHT22;71039;49.500;10.418;2023-11-19T06:40:16;12.30;71.30
81630;DHT22;71039;49.500;10.418;2023-11-19T06:42:42;12.30;71.40
81630;DHT22;71039;49.500;10.418;2023-11-19T06:45:07;12.40;71.50
81630;DHT22;71039;49.500;10.418;2023-11-19T06:47:33;12.40;71.40
81630;DHT22;71039;49.500;10.418;2023-11-19T06:49:59;12.40;71.50
81630;DHT22;71039;49.500;10.418;2023-11-19T06:52:24;12.50;71.50
81630;DHT22;71039;49.500;10.418;2023-11-19T06:54:50;12.50;71.50
81630;DHT22;71039;49.500;10.418;2023-11-19T06:57:15;12.50;71.40
81630;DHT22;71039;49.500;10.418;2023-11-19T06:59:42;12.50;71.50
81630;DHT22;71039;49.500;10.418;2023-11-19T07:02:08;12.50;71.50
81630;DHT22;71039;49.500;10.418;2023-11-19T07:04:33;12.50;71.50
81630;DHT22;71039;49.500;10.418;2023-11-19T07:06:59;12.50;71.50
81630;DHT22;71039;49.500;10.418;2023-11-19T07:09:24;12.50;71.40
81630;DHT22;71039;49.500;10.418;2023-11-19T07:11:50;12.50;71.50
81630;DHT22;71039;49.500;10.418;2023-11-19T07:14:16;12.60;71.50
81630;DHT22;71039;49.500;10.418;2023-11-19T07:16:41;12.60;71.50
81630;DHT22;71039;49.500;10.418;2023-11-19T07:19:08;12.70;71.60
81630;DHT22;71039;49.500;10.418;2023-11-19T07:21:33;12.70;71.60
81630;DHT22;71039;49.500;10.418;2023-11-19T07:23:59;12.70;71.50
81630;DHT22;71039;49.500;10.418;2023-11-19T07:26:25;12.70;71.60
81630;DHT22;71039;49.500;10.418;2023-11-19T07:28:51;12.80;71.60
81630;DHT22;71039;49.500;10.418;2023-11-19T07:31:17;12.80;71.60
81630;DHT22;71039;49.500;10.418;2023-11-19T07:33:42;12.80;71.60
81630;DHT22;71039;49.500;10.418;2023-11-19T07:36:08;12.80;71.60
81630;DHT22;71039;49.500;10.418;2023-11-19T07:38:34;12.80;71.70
81630;DHT22;71039;49.500;10.418;2023-11-19T07:41:00;12.80;71.60
81630;DHT22;71039;49.500;10.418;2023-11-19T07:43:26;12.90;71.70
81630;DHT22;71039;49.500;10.418;2023-11-19T07:45:51;12.90;71.80
81630;DHT22;71039;49.500;10.418;2023-11-19T07:48:17;12.90;71.80
81630;DHT22;71039;49.500;10.418;2023-11-19T07:50:42;13.00;71.90
81630;DHT22;71039;49.500;10.418;2023-11-19T07:53:08;13.00;71.90
81630;DHT22;71039;49.500;10.418;2023-11-19T07:55:34;13.00;71.90
81630;DHT22;71039;49.500;10.418;2023-11-19T07:57:59;13.00;71.90
81630;DHT22;71039;49.500;10.418;2023-11-19T08:00:25;13.10;71.90
81630;DHT22;71039;49.500;10.418;2023-11-19T08:02:50;13.10;71.90
81630;DHT22;71039;49.500;10.418;2023-11-19T08:05:16;13.10;72.00
81630;DHT22;71039;49.500;10.418;2023-11-19T08:07:41;13.10;72.00
81630;DHT22;71039;49.500;10.418;2023-11-19T08:10:07;13.10;72.00
81630;DHT22;71039;49.500;10.418;2023-11-19T08:12:33;13.20;72.10
81630;DHT22;71039;49.500;10.418;2023-11-19T08:14:58;13.30;72.10
81630;DHT22;71039;49.500;10.418;2023-11-19T08:17:24;13.30;72.10
81630;DHT22;71039;49.500;10.418;2023-11-19T08:19:50;13.30;72.10
81630;DHT22;71039;49.500;10.418;2023-11-19T08:22:16;13.30;72.10
81630;DHT22;71039;49.500;10.418;2023-11-19T08:24:41;13.40;72.10
81630;DHT22;71039;49.500;10.418;2023-11-19T08:27:07;13.50;72.20
81630;DHT22;71039;49.500;10.418;2023-11-19T08:29:32;13.50;72.20
81630;DHT22;71039;49.500;10.418;2023-11-19T08:32:00;13.50;72.30
81630;DHT22;71039;49.500;10.418;2023-11-19T08:34:26;13.60;72.20
81630;DHT22;71039;49.500;10.418;2023-11-19T08:36:51;13.60;72.20
81630;DHT22;71039;49.500;10.418;2023-11-19T08:39:17;13.60;72.20
81630;DHT22;71039;49.500;10.418;2023-11-19T08:41:42;13.70;72.30
81630;DHT22;71039;49.500;10.418;2023-11-19T08:44:08;13.80;72.40
81630;DHT22;71039;49.500;10.418;2023-11-19T08:46:33;13.80;72.30
81630;DHT22;71039;49.500;10.418;2023-11-19T08:48:59;13.90;72.30
81630;DHT22;71039;49.500;10.418;2023-11-19T08:51:25;13.90;72.40
81630;DHT22;71039;49.500;10.418;2023-11-19T08:53:50;14.00;73.10
81630;DHT22;71039;49.500;10.418;2023-11-19T08:56:16;14.10;73.50
81630;DHT22;71039;49.500;10.418;2023-11-19T08:58:41;14.30;73.40
81630;DHT22;71039;49.500;10.418;2023-11-19T09:01:07;14.40;73.10
81630;DHT22;71039;49.500;10.418;2023-11-19T09:03:33;14.50;73.00
81630;DHT22;71039;49.500;10.418;2023-11-19T09:05:58;14.70;72.50
81630;DHT22;71039;49.500;10.418;2023-11-19T09:08:25;14.80;72.10
81630;DHT22;71039;49.500;10.418;2023-11-19T09:10:50;14.90;71.60
81630;DHT22;71039;49.500;10.418;2023-11-19T09:13:16;14.90;71.20
81630;DHT22;71039;49.500;10.418;2023-11-19T09:15:41;15.00;71.10
81630;DHT22;71039;49.500;10.418;2023-11-19T09:18:07;15.00;70.90
81630;DHT22;71039;49.500;10.418;2023-11-19T09:20:32;15.10;70.80
81630;DHT22;71039;49.500;10.418;2023-11-19T09:22:58;15.10;70.70
81630;DHT22;71039;49.500;10.418;2023-11-19T09:25:23;15.20;70.50
81630;DHT22;71039;49.500;10.418;2023-11-19T09:27:49;15.20;70.30
81630;DHT22;71039;49.500;10.418;2023-11-19T09:30:15;15.20;70.20
81630;DHT22;71039;49.500;10.418;2023-11-19T09:32:40;15.30;70.00
81630;DHT22;71039;49.500;10.418;2023-11-19T09:35:06;15.30;69.90
81630;DHT22;71039;49.500;10.418;2023-11-19T09:37:31;15.30;69.80
81630;DHT22;71039;49.500;10.418;2023-11-19T09:39:57;15.30;69.80
81630;DHT22;71039;49.500;10.418;2023-11-19T09:42:24;15.30;69.80
81630;DHT22;71039;49.500;10.418;2023-11-19T09:44:49;15.30;69.80
81630;DHT22;71039;49.500;10.418;2023-11-19T09:47:17;15.30;69.80
81630;DHT22;71039;49.500;10.418;2023-11-19T09:49:44;15.30;69.80
81630;DHT22;71039;49.500;10.418;2023-11-19T09:52:10;15.30;69.80
81630;DHT22;71039;49.500;10.418;2023-11-19T09:54:35;15.40;69.80
81630;DHT22;71039;49.500;10.418;2023-11-19T09:57:02;15.40;69.70
81630;DHT22;71039;49.500;10.418;2023-11-19T09:59:27;15.40;69.60
81630;DHT22;71039;49.500;10.418;2023-11-19T10:01:53;15.40;69.50
81630;DHT22;71039;49.500;10.418;2023-11-19T10:04:20;15.40;69.30
81630;DHT22;71039;49.500;10.418;2023-11-19T10:06:45;15.40;69.20
81630;DHT22;71039;49.500;10.418;2023-11-19T10:09:12;15.40;69.20
81630;DHT22;71039;49.500;10.418;2023-11-19T10:11:38;15.40;69.10
81630;DHT22;71039;49.500;10.418;2023-11-19T10:14:03;15.40;69.10
81630;DHT22;71039;49.500;10.418;2023-11-19T10:16:30;15.40;69.20
81630;DHT22;71039;49.500;10.418;2023-11-19T10:18:55;15.40;69.40
81630;DHT22;71039;49.500;10.418;2023-11-19T10:21:21;15.40;69.50
81630;DHT22;71039;49.500;10.418;2023-11-19T10:23:57;15.40;69.50
81630;DHT22;71039;49.500;10.418;2023-11-19T10:26:23;15.40;69.50
81630;DHT22;71039;49.500;10.418;2023-11-19T10:28:49;15.40;69.40
81630;DHT22;71039;49.500;10.418;2023-11-19T10:31:15;15.40;69.50
81630;DHT22;71039;49.500;10.418;2023-11-19T10:33:41;15.40;69.60
81630;DHT22;71039;49.500;10.418;2023-11-19T10:36:07;15.50;69.60
81630;DHT22;71039;49.500;10.418;2023-11-19T10:38:33;15.50;69.60
81630;DHT22;71039;49.500;10.418;2023-11-19T10:40:59;15.50;69.50
81630;DHT22;71039;49.500;10.418;2023-11-19T10:43:25;15.60;69.30
81630;DHT22;71039;49.500;10.418;2023-11-19T10:45:51;15.60;69.20
81630;DHT22;71039;49.500;10.418;2023-11-19T10:48:17;15.60;69.00
81630;DHT22;71039;49.500;10.418;2023-11-19T10:50:44;15.60;68.90
81630;DHT22;71039;49.500;10.418;2023-11-19T10:53:10;15.60;68.80
81630;DHT22;71039;49.500;10.418;2023-11-19T10:55:37;15.60;68.90
81630;DHT22;71039;49.500;10.418;2023-11-19T10:58:04;15.60;68.90
81630;DHT22;71039;49.500;10.418;2023-11-19T11:03:08;15.70;68.90
81630;DHT22;71039;49.500;10.418;2023-11-19T11:05:36;15.80;69.20
81630;DHT22;71039;49.500;10.418;2023-11-19T11:08:03;15.80;69.80
81630;DHT22;71039;49.500;10.418;2023-11-19T11:10:32;15.80;69.80
81630;DHT22;71039;49.500;10.418;2023-11-19T11:12:59;16.00;70.30
81630;DHT22;71039;49.500;10.418;2023-11-19T11:15:29;16.00;70.30
81630;DHT22;71039;49.500;10.418;2023-11-19T11:17:59;16.10;69.90
81630;DHT22;71039;49.500;10.418;2023-11-19T11:20:25;16.30;69.40
81630;DHT22;71039;49.500;10.418;2023-11-19T11:32:05;16.50;67.60
81630;DHT22;71039;49.500;10.418;2023-11-19T11:34:47;16.50;67.60
81630;DHT22;71039;49.500;10.418;2023-11-19T11:37:32;16.50;67.00
81630;DHT22;71039;49.500;10.418;2023-11-19T11:39:58;16.50;66.80
81630;DHT22;71039;49.500;10.418;2023-11-19T11:45:02;16.50;66.80
81630;DHT22;71039;49.500;10.418;2023-11-19T11:50:10;16.50;66.20
81630;DHT22;71039;49.500;10.418;2023-11-19T11:53:12;16.40;66.50
81630;DHT22;71039;49.500;10.418;2023-11-19T11:55:53;16.40;66.10
81630;DHT22;71039;49.500;10.418;2023-11-19T11:58:19;16.40;66.20
81630;DHT22;71039;49.500;10.418;2023-11-19T12:00:47;16.40;66.70
81630;DHT22;71039;49.500;10.418;2023-11-19T12:03:13;16.40;66.70
81630;DHT22;71039;49.500;10.418;2023-11-19T12:05:41;16.40;66.70
81630;DHT22;71039;49.500;10.418;2023-11-19T12:08:10;16.40;66.70
81630;DHT22;71039;49.500;10.418;2023-11-19T12:10:43;16.40;66.60
81630;DHT22;71039;49.500;10.418;2023-11-19T12:13:09;16.40;66.40
81630;DHT22;71039;49.500;10.418;2023-11-19T12:18:27;16.30;65.90
81630;DHT22;71039;49.500;10.418;2023-11-19T12:20:53;16.20;66.10
81630;DHT22;71039;49.500;10.418;2023-11-19T12:23:19;16.30;66.60
81630;DHT22;71039;49.500;10.418;2023-11-19T12:25:44;16.30;66.50
81630;DHT22;71039;49.500;10.418;2023-11-19T12:28:16;16.40;66.50
81630;DHT22;71039;49.500;10.418;2023-11-19T12:30:42;16.30;66.40
81630;DHT22;71039;49.500;10.418;2023-11-19T12:33:11;16.40;66.50
81630;DHT22;71039;49.500;10.418;2023-11-19T12:35:41;16.40;66.50
81630;DHT22;71039;49.500;10.418;2023-11-19T12:38:06;16.40;66.20
81630;DHT22;71039;49.500;10.418;2023-11-19T12:40:32;16.40;65.70
81630;DHT22;71039;49.500;10.418;2023-11-19T12:42:58;16.40;65.30
81630;DHT22;71039;49.500;10.418;2023-11-19T12:45:23;16.50;65.10
81630;DHT22;71039;49.500;10.418;2023-11-19T12:47:49;16.40;64.70
81630;DHT22;71039;49.500;10.418;2023-11-19T12:50:16;16.40;64.40
81630;DHT22;71039;49.500;10.418;2023-11-19T12:52:42;16.40;64.10
81630;DHT22;71039;49.500;10.418;2023-11-19T12:55:28;16.40;64.00
81630;DHT22;71039;49.500;10.418;2023-11-19T12:57:54;16.30;63.60
81630;DHT22;71039;49.500;10.418;2023-11-19T13:00:23;16.20;64.30
81630;DHT22;71039;49.500;10.418;2023-11-19T13:02:54;16.20;64.50
81630;DHT22;71039;49.500;10.418;2023-11-19T13:07:47;16.20;64.80
81630;DHT22;71039;49.500;10.418;2023-11-19T13:10:12;16.20;64.90
81630;DHT22;71039;49.500;10.418;2023-11-19T13:12:38;16.20;65.00
81630;DHT22;71039;49.500;10.418;2023-11-19T13:15:04;16.20;65.10
81630;DHT22;71039;49.500;10.418;2023-11-19T13:17:29;16.20;65.20
81630;DHT22;71039;49.500;10.418;2023-11-19T13:19:55;16.20;65.20
81630;DHT22;71039;49.500;10.418;2023-11-19T13:22:20;16.20;65.20
81630;DHT22;71039;49.500;10.418;2023-11-19T13:24:46;16.20;65.00
81630;DHT22;71039;49.500;10.418;2023-11-19T13:27:13;16.30;64.80
81630;DHT22;71039;49.500;10.418;2023-11-19T13:29:39;16.30;64.70
81630;DHT22;71039;49.500;10.418;2023-11-19T13:32:04;16.30;64.60
81630;DHT22;71039;49.500;10.418;2023-11-19T13:34:30;16.30;64.40
81630;DHT22;71039;49.500;10.418;2023-11-19T13:36:55;16.20;64.20
81630;DHT22;71039;49.500;10.418;2023-11-19T13:39:21;16.20;64.10
81630;DHT22;71039;49.500;10.418;2023-11-19T13:41:46;16.20;64.20
81630;DHT22;71039;49.500;10.418;2023-11-19T13:44:12;16.20;64.20
81630;DHT22;71039;49.500;10.418;2023-11-19T13:46:37;16.20;64.30
81630;DHT22;71039;49.500;10.418;2023-11-19T13:49:03;16.20;64.10
81630;DHT22;71039;49.500;10.418;2023-11-19T13:51:28;16.10;64.00
81630;DHT22;71039;49.500;10.418;2023-11-19T13:53:54;16.10;63.90
81630;DHT22;71039;49.500;10.418;2023-11-19T13:56:19;16.10;63.70
81630;DHT22;71039;49.500;10.418;2023-11-19T13:58:45;16.10;63.70
81630;DHT22;71039;49.500;10.418;2023-11-19T14:01:10;16.10;63.60
81630;DHT22;71039;49.500;10.418;2023-11-19T14:03:37;16.00;63.60
81630;DHT22;71039;49.500;10.418;2023-11-19T14:06:03;16.00;63.50
81630;DHT22;71039;49.500;10.418;2023-11-19T14:08:28;16.00;63.50
81630;DHT22;71039;49.500;10.418;2023-11-19T14:10:54;16.00;63.60
81630;DHT22;71039;49.500;10.418;2023-11-19T14:13:19;16.00;63.70
81630;DHT22;71039;49.500;10.418;2023-11-19T14:15:45;15.90;63.80
81630;DHT22;71039;49.500;10.418;2023-11-19T14:18:10;16.00;63.90
81630;DHT22;71039;49.500;10.418;2023-11-19T14:20:36;16.00;63.90
81630;DHT22;71039;49.500;10.418;2023-11-19T14:23:01;16.00;64.00
81630;DHT22;71039;49.500;10.418;2023-11-19T14:25:27;16.00;63.80
81630;DHT22;71039;49.500;10.418;2023-11-19T14:27:52;16.00;63.70
81630;DHT22;71039;49.500;10.418;2023-11-19T14:30:18;16.00;63.70
81630;DHT22;71039;49.500;10.418;2023-11-19T14:32:43;16.00;63.50
81630;DHT22;71039;49.500;10.418;2023-11-19T14:35:09;16.00;63.40
81630;DHT22;71039;49.500;10.418;2023-11-19T14:37:35;16.00;63.20
81630;DHT22;71039;49.500;10.418;2023-11-19T14:40:00;16.00;63.00
81630;DHT22;71039;49.500;10.418;2023-11-19T14:42:26;16.00;62.80
81630;DHT22;71039;49.500;10.418;2023-11-19T14:44:52;16.00;62.70
81630;DHT22;71039;49.500;10.418;2023-11-19T14:47:18;16.00;62.70
81630;DHT22;71039;49.500;10.418;2023-11-19T14:49:43;16.00;62.70
81630;DHT22;71039;49.500;10.418;2023-11-19T14:52:09;15.90;62.70
81630;DHT22;71039;49.500;10.418;2023-11-19T14:54:34;15.90;62.80
81630;DHT22;71039;49.500;10.418;2023-11-19T14:57:00;15.80;62.80
81630;DHT22;71039;49.500;10.418;2023-11-19T14:59:25;15.80;62.80
81630;DHT22;71039;49.500;10.418;2023-11-19T15:01:51;15.80;62.80
81630;DHT22;71039;49.500;10.418;2023-11-19T15:04:16;15.80;62.80
81630;DHT22;71039;49.500;10.418;2023-11-19T15:06:42;15.80;62.80
81630;DHT22;71039;49.500;10.418;2023-11-19T15:09:08;15.80;62.70
81630;DHT22;71039;49.500;10.418;2023-11-19T15:11:33;15.80;62.60
81630;DHT22;71039;49.500;10.418;2023-11-19T15:13:59;15.80;62.60
81630;DHT22;71039;49.500;10.418;2023-11-19T15:16:24;15.70;62.60
81630;DHT22;71039;49.500;10.418;2023-11-19T15:18:50;15.60;62.50
81630;DHT22;71039;49.500;10.418;2023-11-19T15:21:15;15.60;62.40
81630;DHT22;71039;49.500;10.418;2023-11-19T15:23:41;15.60;62.30
81630;DHT22;71039;49.500;10.418;2023-11-19T15:26:06;15.60;62.30
81630;DHT22;71039;49.500;10.418;2023-11-19T15:28:32;15.50;62.30
81630;DHT22;71039;49.500;10.418;2023-11-19T15:30:57;15.50;62.30
81630;DHT22;71039;49.500;10.418;2023-11-19T15:33:23;15.40;62.30